createdAt,value
2018-06-10T00:02:07.202Z,94.90
2018-06-10T00:04:35.500Z,95.10
2018-06-10T00:07:03.762Z,95.30
2018-06-10T00:09:32.106Z,95.70
2018-06-10T00:12:00.342Z,95.80
2018-06-10T00:14:29.046Z,96.00
2018-06-10T00:16:57.613Z,96.20
2018-06-10T00:19:25.940Z,96.30
2018-06-10T00:21:54.221Z,96.30
2018-06-10T00:24:22.472Z,96.90
2018-06-10T00:26:50.671Z,97.00
2018-06-10T00:29:21.326Z,97.00
2018-06-10T00:31:50.075Z,97.30
2018-06-10T00:36:46.895Z,97.60
2018-06-10T00:39:15.171Z,97.60
2018-06-10T00:41:43.447Z,97.60
2018-06-10T00:44:11.675Z,97.70
2018-06-10T00:46:40.213Z,97.80
2018-06-10T00:49:08.474Z,97.80
2018-06-10T00:51:36.810Z,98.10
2018-06-10T00:59:09.600Z,98.60
2018-06-10T01:01:37.911Z,98.70
2018-06-10T01:04:06.126Z,98.60
2018-06-10T01:09:02.460Z,98.80
2018-06-10T01:11:30.663Z,98.90
2018-06-10T01:13:58.882Z,99.30
2018-06-10T01:21:23.392Z,99.70
2018-06-10T01:23:51.645Z,99.70
2018-06-10T01:26:25.424Z,99.80
2018-06-10T01:28:53.664Z,99.80
2018-06-10T01:31:21.947Z,99.90
2018-06-10T01:33:50.155Z,99.90
2018-06-10T01:36:18.434Z,99.90
2018-06-10T01:38:47.557Z,99.90
2018-06-10T01:41:15.911Z,99.90
2018-06-10T01:43:44.256Z,99.90
2018-06-10T01:46:12.456Z,99.90
2018-06-10T01:48:40.657Z,99.90
2018-06-10T01:51:09.049Z,99.90
2018-06-10T01:53:37.312Z,99.90
2018-06-10T01:56:05.494Z,99.90
2018-06-10T01:58:33.739Z,99.90
2018-06-10T02:01:02.067Z,99.90
2018-06-10T02:03:30.949Z,99.90
2018-06-10T02:05:59.246Z,99.90
2018-06-10T02:08:27.466Z,99.90
2018-06-10T02:10:55.798Z,99.90
2018-06-10T02:13:24.060Z,99.90
2018-06-10T02:15:52.292Z,99.90
2018-06-10T02:18:20.559Z,99.90
2018-06-10T02:20:48.753Z,99.90
2018-06-10T02:23:16.951Z,99.90
2018-06-10T02:25:45.185Z,99.90
2018-06-10T02:28:13.407Z,99.90
2018-06-10T02:35:37.672Z,99.90
2018-06-10T02:38:06.103Z,99.90
2018-06-10T02:40:34.320Z,99.90
2018-06-10T02:43:02.624Z,99.90
2018-06-10T02:45:30.831Z,99.90
2018-06-10T02:47:59.024Z,99.90
2018-06-10T02:50:27.249Z,99.90
2018-06-10T02:52:55.648Z,99.90
2018-06-10T02:55:24.272Z,99.90
2018-06-10T02:57:52.505Z,99.90
2018-06-10T03:00:20.842Z,99.90
2018-06-10T03:02:49.176Z,99.90
2018-06-10T03:05:17.394Z,99.90
2018-06-10T03:07:45.649Z,99.90
2018-06-10T03:10:13.867Z,99.90
2018-06-10T03:12:42.148Z,99.90
2018-06-10T03:15:10.438Z,99.90
2018-06-10T03:17:38.720Z,99.90
2018-06-10T03:20:06.963Z,99.90
2018-06-10T03:22:35.162Z,99.90
2018-06-10T03:25:03.432Z,99.90
2018-06-10T03:27:31.642Z,99.90
2018-06-10T03:32:27.950Z,99.90
2018-06-10T03:34:56.233Z,99.90
2018-06-10T03:37:25.255Z,99.90
2018-06-10T03:39:53.498Z,99.90
2018-06-10T03:44:49.771Z,99.90
2018-06-10T03:49:46.007Z,99.90
2018-06-10T03:52:14.287Z,99.90
2018-06-10T03:54:42.506Z,99.90
2018-06-10T03:57:10.779Z,99.90
2018-06-10T03:59:39.022Z,99.90
2018-06-10T04:02:07.299Z,99.90
2018-06-10T04:04:35.547Z,99.90
2018-06-10T04:07:03.784Z,99.90
2018-06-10T04:09:31.967Z,99.90
2018-06-10T04:12:00.253Z,99.90
2018-06-10T04:14:28.558Z,99.90
2018-06-10T04:16:56.879Z,99.90
2018-06-10T04:19:25.067Z,99.90
2018-06-10T04:21:53.331Z,99.90
2018-06-10T04:24:21.562Z,99.90
2018-06-10T04:26:49.860Z,99.90
2018-06-10T04:29:18.323Z,99.90
2018-06-10T04:31:46.595Z,99.90
2018-06-10T04:34:14.782Z,99.90
2018-06-10T04:36:43.018Z,99.90
2018-06-10T04:39:11.215Z,99.90
2018-06-10T04:44:07.448Z,99.50
2018-06-10T04:46:35.816Z,99.30
2018-06-10T04:49:04.059Z,99.00
2018-06-10T04:51:32.448Z,98.90
2018-06-10T04:56:28.732Z,98.40
2018-06-10T05:01:25.016Z,98.40
2018-06-10T05:03:53.214Z,98.40
2018-06-10T05:06:21.449Z,98.10
2018-06-10T05:08:49.737Z,98.10
2018-06-10T05:11:18.019Z,98.00
2018-06-10T05:13:46.213Z,97.90
2018-06-10T05:16:14.463Z,97.80
2018-06-10T05:18:42.668Z,97.60
2018-06-10T05:21:10.887Z,97.30
2018-06-10T05:23:40.238Z,96.90
2018-06-10T05:26:08.466Z,96.60
2018-06-10T05:28:36.735Z,96.80
2018-06-10T05:31:05.020Z,96.60
2018-06-10T05:33:33.249Z,96.30
2018-06-10T05:36:01.534Z,96.40
2018-06-10T05:38:31.176Z,96.30
2018-06-10T05:40:59.446Z,96.20
2018-06-10T05:43:27.650Z,96.40
2018-06-10T05:45:55.881Z,96.50
2018-06-10T05:48:24.174Z,96.50
2018-06-10T05:50:52.423Z,96.50
2018-06-10T05:53:20.726Z,96.20
2018-06-10T05:55:48.933Z,95.80
2018-06-10T05:58:17.201Z,95.50
2018-06-10T06:08:09.603Z,94.80
2018-06-10T06:10:37.795Z,94.70
2018-06-10T06:13:06.035Z,94.80
2018-06-10T06:15:34.283Z,94.40
2018-06-10T06:18:02.509Z,94.20
2018-06-10T06:20:30.719Z,93.70
2018-06-10T06:22:58.951Z,93.10
2018-06-10T06:25:27.159Z,92.70
2018-06-10T06:27:55.383Z,92.50
2018-06-10T06:30:23.675Z,92.30
2018-06-10T06:32:51.978Z,92.00
2018-06-10T06:35:20.212Z,91.60
2018-06-10T06:40:16.424Z,90.50
2018-06-10T06:42:44.646Z,90.20
2018-06-10T06:45:13.218Z,89.00
2018-06-10T06:47:41.518Z,87.90
2018-06-10T06:50:09.733Z,86.40
2018-06-10T06:52:38.087Z,84.40
2018-06-10T06:55:06.280Z,83.10
2018-06-10T06:57:34.557Z,82.70
2018-06-10T07:00:03.063Z,82.60
2018-06-10T07:02:31.606Z,82.00
2018-06-10T07:07:27.866Z,81.30
2018-06-10T07:09:56.067Z,81.60
2018-06-10T07:14:53.855Z,80.00
2018-06-10T07:17:22.097Z,80.20
2018-06-10T07:19:50.317Z,81.10
2018-06-10T07:22:18.602Z,80.60
2018-06-10T07:24:47.060Z,80.10
2018-06-10T07:27:15.275Z,79.50
2018-06-10T07:29:43.796Z,79.40
2018-06-10T07:32:12.041Z,79.10
2018-06-10T07:34:40.407Z,78.30
2018-06-10T07:37:08.790Z,77.90
2018-06-10T07:39:37.148Z,78.00
2018-06-10T07:42:05.479Z,78.50
2018-06-10T07:44:33.752Z,78.70
2018-06-10T07:49:30.495Z,78.80
2018-06-10T07:51:58.715Z,79.10
2018-06-10T07:54:27.055Z,78.70
2018-06-10T07:56:55.337Z,78.30
2018-06-10T07:59:23.696Z,77.80
2018-06-10T08:04:19.963Z,75.80
2018-06-10T08:09:16.232Z,74.20
2018-06-10T08:11:44.439Z,73.80
2018-06-10T08:19:08.898Z,73.20
2018-06-10T08:24:05.615Z,71.10
2018-06-10T08:26:33.936Z,70.80
2018-06-10T08:29:02.183Z,70.10
2018-06-10T08:31:30.439Z,69.10
2018-06-10T08:36:26.763Z,67.60
2018-06-10T08:38:55.072Z,65.10
2018-06-10T08:41:23.669Z,65.40
2018-06-10T08:43:52.039Z,63.50
2018-06-10T08:48:48.345Z,62.70
2018-06-10T08:51:16.595Z,62.20
2018-06-10T08:53:44.794Z,62.60
2018-06-10T08:56:16.285Z,62.30
2018-06-10T08:58:44.579Z,61.80
2018-06-10T09:01:12.863Z,61.40
2018-06-10T09:03:41.552Z,60.40
2018-06-10T09:06:09.855Z,60.40
2018-06-10T09:08:38.240Z,59.50
2018-06-10T09:11:06.809Z,58.90
2018-06-10T09:13:35.132Z,58.60
2018-06-10T09:16:03.555Z,58.70
2018-06-10T09:21:00.235Z,58.30
2018-06-10T09:23:28.627Z,58.90
2018-06-10T09:25:57.243Z,58.50
2018-06-10T09:28:25.688Z,59.30
2018-06-10T09:30:54.037Z,58.90
2018-06-10T09:33:22.362Z,58.90
2018-06-10T09:35:50.751Z,58.10
2018-06-10T09:38:19.153Z,58.10
2018-06-10T09:40:47.797Z,58.20
2018-06-10T09:43:16.251Z,58.50
2018-06-10T09:48:15.246Z,59.20
2018-06-10T09:50:43.646Z,58.10
2018-06-10T09:53:12.205Z,57.50
2018-06-10T09:55:40.703Z,57.00
2018-06-10T09:58:09.730Z,57.00
2018-06-10T10:00:39.705Z,57.80
2018-06-10T10:05:36.109Z,56.80
2018-06-10T10:08:05.616Z,57.20
2018-06-10T10:10:34.028Z,57.00
2018-06-10T10:13:03.156Z,57.20
2018-06-10T10:15:32.163Z,57.20
2018-06-10T10:18:02.671Z,56.70
2018-06-10T10:23:00.220Z,56.20
2018-06-10T10:25:32.331Z,56.50
2018-06-10T10:30:30.276Z,55.90
2018-06-10T10:33:00.723Z,55.70
2018-06-10T10:35:29.969Z,54.80
2018-06-10T10:37:58.232Z,54.90
2018-06-10T10:40:27.394Z,55.40
2018-06-10T10:43:00.231Z,54.50
2018-06-10T10:45:28.711Z,54.70
2018-06-10T10:47:57.765Z,53.60
2018-06-10T10:50:26.335Z,53.80
2018-06-10T10:52:54.903Z,53.10
2018-06-10T10:57:51.505Z,53.60
2018-06-10T11:00:20.150Z,52.70
2018-06-10T11:02:48.557Z,52.70
2018-06-10T11:05:17.165Z,52.60
2018-06-10T11:10:13.690Z,52.20
2018-06-10T11:12:43.360Z,51.20
2018-06-10T11:17:39.871Z,51.40
2018-06-10T11:20:08.244Z,50.00
2018-06-10T11:25:04.726Z,50.30
2018-06-10T11:27:33.029Z,51.00
2018-06-10T11:30:01.389Z,50.80
2018-06-10T11:34:58.822Z,51.40
2018-06-10T11:37:27.211Z,50.00
2018-06-10T11:39:56.016Z,49.90
2018-06-10T11:42:24.455Z,48.60
2018-06-10T11:44:52.754Z,44.90
2018-06-10T11:47:22.734Z,43.40
2018-06-10T11:49:51.348Z,43.70
2018-06-10T11:52:20.748Z,43.20
2018-06-10T11:54:49.045Z,43.70
2018-06-10T11:57:17.419Z,43.50
2018-06-10T11:59:49.213Z,43.70
2018-06-10T12:02:18.815Z,44.50
2018-06-10T12:04:47.335Z,44.00
2018-06-10T12:07:15.828Z,44.10
2018-06-10T12:09:45.030Z,44.70
2018-06-10T12:12:13.595Z,45.50
2018-06-10T12:14:42.042Z,46.20
2018-06-10T12:17:10.450Z,47.00
2018-06-10T12:19:38.735Z,48.10
2018-06-10T12:22:07.152Z,49.10
2018-06-10T12:27:04.200Z,51.70
2018-06-10T12:29:32.567Z,52.20
2018-06-10T12:32:01.007Z,52.10
2018-06-10T12:34:29.294Z,53.00
2018-06-10T12:36:57.775Z,53.20
2018-06-10T12:39:26.283Z,53.50
2018-06-10T12:41:55.476Z,54.70
2018-06-10T12:44:23.948Z,55.90
2018-06-10T12:46:52.276Z,56.70
2018-06-10T12:49:20.636Z,57.20
2018-06-10T12:51:49.052Z,57.60
2018-06-10T12:54:17.630Z,57.70
2018-06-10T12:56:45.971Z,57.80
2018-06-10T13:01:42.660Z,58.90
2018-06-10T13:06:38.966Z,58.50
2018-06-10T13:09:08.426Z,60.20
2018-06-10T13:11:36.873Z,62.80
2018-06-10T13:14:06.007Z,65.30
2018-06-10T13:16:34.427Z,67.30
2018-06-10T13:19:03.068Z,68.20
2018-06-10T13:21:31.326Z,68.70
2018-06-10T13:26:28.040Z,68.40
2018-06-10T13:28:56.487Z,67.90
2018-06-10T13:31:24.927Z,68.60
2018-06-10T13:33:53.249Z,69.40
2018-06-10T13:36:21.440Z,69.80
2018-06-10T13:38:49.762Z,70.50
2018-06-10T13:41:17.979Z,71.10
2018-06-10T13:43:46.293Z,71.60
2018-06-10T13:46:14.632Z,72.90
2018-06-10T13:48:43.686Z,73.30
2018-06-10T13:51:11.976Z,73.50
2018-06-10T13:53:40.318Z,75.30
2018-06-10T13:56:09.285Z,73.70
2018-06-10T13:58:38.380Z,73.70
2018-06-10T14:01:06.672Z,75.40
2018-06-10T14:03:35.116Z,77.00
2018-06-10T14:06:03.665Z,78.20
2018-06-10T14:08:32.540Z,80.90
2018-06-10T14:11:00.763Z,82.00
2018-06-10T14:13:29.092Z,82.00
2018-06-10T14:15:57.387Z,81.60
2018-06-10T14:20:54.023Z,81.50
2018-06-10T14:23:22.837Z,83.00
2018-06-10T14:25:51.981Z,83.60
2018-06-10T14:30:48.455Z,84.30
2018-06-10T14:35:45.346Z,83.90
2018-06-10T14:40:41.766Z,82.50
2018-06-10T14:44:13.376Z,82.40
2018-06-10T14:46:41.722Z,81.90
2018-06-10T14:49:10.420Z,82.40
2018-06-10T14:51:38.736Z,83.60
2018-06-10T14:54:08.271Z,84.10
2018-06-10T14:56:36.645Z,85.90
2018-06-10T14:59:04.998Z,88.60
2018-06-10T15:04:01.436Z,93.30
2018-06-10T15:06:29.787Z,98.10
2018-06-10T15:08:58.055Z,99.90
2018-06-10T15:13:54.746Z,99.90
2018-06-10T15:16:23.152Z,99.90
2018-06-10T15:18:51.417Z,99.90
2018-06-10T15:21:19.747Z,99.90
2018-06-10T15:23:48.073Z,99.90
2018-06-10T15:26:16.484Z,99.90
2018-06-10T15:31:13.995Z,99.90
2018-06-10T15:33:42.253Z,99.90
2018-06-10T15:36:10.539Z,99.90
2018-06-10T15:38:38.833Z,99.90
2018-06-10T15:41:08.464Z,99.90
2018-06-10T15:46:04.811Z,99.90
2018-06-10T15:48:33.058Z,99.90
2018-06-10T15:51:01.394Z,99.90
2018-06-10T15:53:30.698Z,99.90
2018-06-10T15:55:59.043Z,99.90
2018-06-10T15:58:27.599Z,99.90
2018-06-10T16:00:56.647Z,99.90
2018-06-10T16:03:24.936Z,99.90
2018-06-10T16:05:53.337Z,99.90
2018-06-10T16:08:21.571Z,99.90
2018-06-10T16:10:49.910Z,99.90
2018-06-10T16:13:18.619Z,99.90
2018-06-10T16:15:47.505Z,99.90
2018-06-10T16:18:16.830Z,99.90
2018-06-10T16:20:45.082Z,99.90
2018-06-10T16:23:13.344Z,99.90
2018-06-10T16:25:41.678Z,99.90
2018-06-10T16:33:06.376Z,99.90
2018-06-10T16:35:35.009Z,99.90
2018-06-10T16:38:03.929Z,99.30
2018-06-10T16:40:32.264Z,98.50
2018-06-10T16:43:00.498Z,97.30
2018-06-10T16:45:29.694Z,95.70
2018-06-10T16:47:58.022Z,93.50
2018-06-10T16:50:26.344Z,91.90
2018-06-10T16:52:54.670Z,91.30
2018-06-10T16:55:22.968Z,91.90
2018-06-10T16:57:51.323Z,86.10
2018-06-10T17:00:19.602Z,82.60
2018-06-10T17:02:47.994Z,86.80
2018-06-10T17:05:16.628Z,90.20
2018-06-10T17:07:45.027Z,92.60
2018-06-10T17:10:13.406Z,93.40
2018-06-10T17:12:41.801Z,94.70
2018-06-10T17:15:10.334Z,97.80
2018-06-10T17:20:10.362Z,99.90
2018-06-10T17:22:38.695Z,99.90
2018-06-10T17:27:35.404Z,99.90
2018-06-10T17:30:04.239Z,99.90
2018-06-10T17:32:32.545Z,99.90
2018-06-10T17:35:01.435Z,99.90
2018-06-10T17:37:29.860Z,99.90
2018-06-10T17:39:58.916Z,99.90
2018-06-10T17:42:27.285Z,99.90
2018-06-10T17:44:55.746Z,99.90
2018-06-10T17:47:24.148Z,99.90
2018-06-10T17:49:52.473Z,99.90
2018-06-10T17:52:20.825Z,99.90
2018-06-10T17:54:50.090Z,99.90
2018-06-10T17:57:18.556Z,99.90
2018-06-10T17:59:47.007Z,99.90
2018-06-10T18:02:15.926Z,99.90
2018-06-10T18:04:44.687Z,99.90
2018-06-10T18:07:12.996Z,99.90
2018-06-10T18:09:41.292Z,99.90
2018-06-10T18:12:09.716Z,99.90
2018-06-10T18:14:38.000Z,99.90
2018-06-10T18:24:30.957Z,99.90
2018-06-10T18:26:59.191Z,99.90
2018-06-10T18:29:27.977Z,99.90
2018-06-10T18:31:56.755Z,99.90
2018-06-10T18:34:25.175Z,99.90
2018-06-10T18:36:53.601Z,99.90
2018-06-10T18:39:23.009Z,99.90
2018-06-10T18:41:52.533Z,99.90
2018-06-10T18:44:20.986Z,99.90
2018-06-10T18:46:49.391Z,99.90
2018-06-10T18:49:20.216Z,99.90
2018-06-10T18:54:17.937Z,99.90
2018-06-10T18:56:46.183Z,99.90
2018-06-10T18:59:14.497Z,99.90
2018-06-10T19:01:43.037Z,99.90
2018-06-10T19:04:11.507Z,99.90
2018-06-10T19:06:39.800Z,99.90
2018-06-10T19:09:09.175Z,99.90
2018-06-10T19:11:38.623Z,99.90
2018-06-10T19:16:35.016Z,99.90
2018-06-10T19:19:03.411Z,99.90
2018-06-10T19:21:31.626Z,99.90
2018-06-10T19:24:00.166Z,99.90
2018-06-10T19:26:28.490Z,99.90
2018-06-10T19:28:56.737Z,99.90
2018-06-10T19:31:24.980Z,99.90
2018-06-10T19:33:54.606Z,99.90
2018-06-10T19:36:22.951Z,99.90
2018-06-10T19:41:19.326Z,99.90
2018-06-10T19:43:47.618Z,99.90
2018-06-10T19:48:44.769Z,99.90
2018-06-10T19:51:13.314Z,99.90
2018-06-10T19:58:37.749Z,99.90
2018-06-10T20:01:06.194Z,99.90
2018-06-10T20:03:34.635Z,99.90
2018-06-10T20:06:03.353Z,99.90
2018-06-10T20:10:59.823Z,99.90
2018-06-10T20:15:57.293Z,99.90
2018-06-10T20:18:26.094Z,99.90
2018-06-10T20:20:54.398Z,99.90
2018-06-10T20:23:22.981Z,99.90
2018-06-10T20:25:51.246Z,99.90
2018-06-10T20:28:19.687Z,99.90
2018-06-10T20:30:48.024Z,99.90
2018-06-10T20:33:16.446Z,99.90
2018-06-10T20:35:44.708Z,99.90
2018-06-10T20:38:13.002Z,99.90
2018-06-10T20:40:41.384Z,99.90
2018-06-10T20:43:10.679Z,99.90
2018-06-10T20:45:38.945Z,99.90
2018-06-10T20:48:07.164Z,99.90
2018-06-10T20:50:35.530Z,99.90
2018-06-10T20:55:31.893Z,99.90
2018-06-10T20:58:01.662Z,99.90
2018-06-10T21:00:29.880Z,99.90
2018-06-10T21:02:58.167Z,99.90
2018-06-10T21:05:26.493Z,99.90
2018-06-10T21:08:00.274Z,99.90
2018-06-10T21:10:28.730Z,99.90
2018-06-10T21:12:58.473Z,99.90
2018-06-10T21:15:28.043Z,99.90
2018-06-10T21:17:56.683Z,99.90
2018-06-10T21:20:25.043Z,99.90
2018-06-10T21:22:53.319Z,99.90
2018-06-10T21:25:22.004Z,99.90
2018-06-10T21:27:50.271Z,99.90
2018-06-10T21:30:18.669Z,99.90
2018-06-10T21:32:47.594Z,99.90
2018-06-10T21:35:16.198Z,99.90
2018-06-10T21:37:44.887Z,99.90
2018-06-10T21:40:14.679Z,99.90
2018-06-10T21:42:43.807Z,99.90
2018-06-10T21:45:13.966Z,99.90
2018-06-10T21:50:11.800Z,99.90
2018-06-10T21:55:10.244Z,99.90
2018-06-10T21:57:38.574Z,99.90
2018-06-10T22:00:11.202Z,99.90
2018-06-10T22:05:07.915Z,99.90
2018-06-10T22:07:36.411Z,99.90
2018-06-10T22:10:04.735Z,99.90
2018-06-10T22:12:32.929Z,99.90
2018-06-10T22:15:01.263Z,99.90
2018-06-10T22:19:58.916Z,99.90
2018-06-10T22:22:27.199Z,99.90
2018-06-10T22:24:55.463Z,99.90
2018-06-10T22:27:24.179Z,99.90
2018-06-10T22:29:53.878Z,99.90
2018-06-10T22:32:22.180Z,99.90
2018-06-10T22:34:51.518Z,99.90
2018-06-10T22:37:20.270Z,99.90
2018-06-10T22:39:48.497Z,99.90
2018-06-10T22:42:16.871Z,99.90
2018-06-10T22:44:45.213Z,99.90
2018-06-10T22:47:13.504Z,99.90
2018-06-10T22:49:41.766Z,99.90
2018-06-10T22:52:10.348Z,99.90
2018-06-10T22:54:39.455Z,99.90
2018-06-10T22:57:08.241Z,99.90
2018-06-10T22:59:36.550Z,99.90
2018-06-10T23:02:07.459Z,99.90
2018-06-10T23:07:03.792Z,99.90
2018-06-10T23:09:32.076Z,99.90
2018-06-10T23:12:00.317Z,99.90
2018-06-10T23:14:28.542Z,99.90
2018-06-10T23:16:57.460Z,99.90
2018-06-10T23:19:25.665Z,99.90
2018-06-10T23:21:54.384Z,99.90
2018-06-10T23:24:22.651Z,99.90
2018-06-10T23:26:52.540Z,99.90
2018-06-10T23:29:20.852Z,99.90
2018-06-10T23:31:49.094Z,99.90
2018-06-10T23:34:17.303Z,99.90
2018-06-10T23:36:45.631Z,99.90
2018-06-10T23:39:13.916Z,99.90
2018-06-10T23:41:42.216Z,99.90
2018-06-10T23:44:10.495Z,99.90
2018-06-10T23:46:38.765Z,99.90
2018-06-10T23:49:07.239Z,99.90
2018-06-10T23:51:35.792Z,99.90
2018-06-10T23:54:04.038Z,99.90
2018-06-10T23:56:32.272Z,99.90
2018-06-10T23:59:00.472Z,99.90
